Terminal Aerodrome Forecast
Issued by NWS Louisville, KY

Home | Current Version | Previous Version | Text Only | Print | Product List | Glossary On
Versions: 1 2 3 4 5 6 7 8 9 10 11 12 13 14 15 16 17 18 19
000
FTUS43 KLMK 300520
TAFSDF
TAF
KSDF 300520Z 3006/3112 22005KT P6SM FEW060 SCT120 SCT250
     FM301700 27012G17KT P6SM SCT060 SCT250
     FM302200 29011KT P6SM FEW070 SCT250
     FM310100 VRB05KT P6SM FEW070 SCT250=

USA.gov is the U.S. government's official web portal to all federal, state and local government web resources and services.